sensor_id;sensor_type;location;lat;lon;timestamp;P1;durP1;ratioP1;P2;durP2;ratioP2
5412;SDS011;2729;50.056;8.678;2023-04-22T00:01:54;8.33;;;2.67;;
5412;SDS011;2729;50.056;8.678;2023-04-22T00:04:20;2.80;;;2.53;;
5412;SDS011;2729;50.056;8.678;2023-04-22T00:06:46;4.37;;;2.70;;
5412;SDS011;2729;50.056;8.678;2023-04-22T00:09:12;2.83;;;2.60;;
5412;SDS011;2729;50.056;8.678;2023-04-22T00:11:38;2.90;;;2.60;;
5412;SDS011;2729;50.056;8.678;2023-04-22T00:14:04;2.77;;;2.57;;
5412;SDS011;2729;50.056;8.678;2023-04-22T00:16:30;5.17;;;3.30;;
5412;SDS011;2729;50.056;8.678;2023-04-22T00:18:56;4.70;;;3.10;;
5412;SDS011;2729;50.056;8.678;2023-04-22T00:21:23;7.73;;;2.40;;
5412;SDS011;2729;50.056;8.678;2023-04-22T00:23:48;2.67;;;2.47;;
5412;SDS011;2729;50.056;8.678;2023-04-22T00:26:14;2.60;;;2.40;;
5412;SDS011;2729;50.056;8.678;2023-04-22T00:28:40;3.40;;;2.80;;
5412;SDS011;2729;50.056;8.678;2023-04-22T00:31:06;2.97;;;2.53;;
5412;SDS011;2729;50.056;8.678;2023-04-22T00:33:32;3.20;;;2.50;;
5412;SDS011;2729;50.056;8.678;2023-04-22T00:35:58;3.47;;;2.90;;
5412;SDS011;2729;50.056;8.678;2023-04-22T00:38:24;2.47;;;2.27;;
5412;SDS011;2729;50.056;8.678;2023-04-22T00:40:50;3.07;;;2.10;;
5412;SDS011;2729;50.056;8.678;2023-04-22T00:43:17;4.97;;;2.47;;
5412;SDS011;2729;50.056;8.678;2023-04-22T00:45:44;2.63;;;2.30;;
5412;SDS011;2729;50.056;8.678;2023-04-22T00:48:12;2.50;;;2.40;;
5412;SDS011;2729;50.056;8.678;2023-04-22T00:50:38;2.23;;;2.13;;
5412;SDS011;2729;50.056;8.678;2023-04-22T00:53:04;5.80;;;2.80;;
5412;SDS011;2729;50.056;8.678;2023-04-22T00:55:30;5.50;;;2.57;;
5412;SDS011;2729;50.056;8.678;2023-04-22T00:57:57;12.43;;;2.60;;
5412;SDS011;2729;50.056;8.678;2023-04-22T01:00:25;6.70;;;3.20;;
5412;SDS011;2729;50.056;8.678;2023-04-22T01:02:52;3.53;;;2.60;;
5412;SDS011;2729;50.056;8.678;2023-04-22T01:05:19;3.50;;;2.57;;
5412;SDS011;2729;50.056;8.678;2023-04-22T01:07:45;2.97;;;2.67;;
5412;SDS011;2729;50.056;8.678;2023-04-22T01:10:11;7.80;;;2.67;;
5412;SDS011;2729;50.056;8.678;2023-04-22T01:12:37;7.80;;;2.10;;
5412;SDS011;2729;50.056;8.678;2023-04-22T01:15:03;4.70;;;2.40;;
5412;SDS011;2729;50.056;8.678;2023-04-22T01:17:30;3.10;;;2.30;;
5412;SDS011;2729;50.056;8.678;2023-04-22T01:19:58;2.30;;;2.20;;
5412;SDS011;2729;50.056;8.678;2023-04-22T01:22:25;4.03;;;2.70;;
5412;SDS011;2729;50.056;8.678;2023-04-22T01:24:54;5.17;;;2.60;;
5412;SDS011;2729;50.056;8.678;2023-04-22T01:27:20;4.03;;;2.13;;
5412;SDS011;2729;50.056;8.678;2023-04-22T01:29:46;3.50;;;2.40;;
5412;SDS011;2729;50.056;8.678;2023-04-22T01:32:13;2.70;;;2.50;;
5412;SDS011;2729;50.056;8.678;2023-04-22T01:34:39;2.93;;;2.43;;
5412;SDS011;2729;50.056;8.678;2023-04-22T01:37:05;2.97;;;2.67;;
5412;SDS011;2729;50.056;8.678;2023-04-22T01:39:31;3.63;;;2.83;;
5412;SDS011;2729;50.056;8.678;2023-04-22T01:41:58;3.93;;;2.23;;
5412;SDS011;2729;50.056;8.678;2023-04-22T01:44:24;2.53;;;2.33;;
5412;SDS011;2729;50.056;8.678;2023-04-22T01:46:50;3.23;;;2.40;;
5412;SDS011;2729;50.056;8.678;2023-04-22T01:49:16;2.90;;;2.40;;
5412;SDS011;2729;50.056;8.678;2023-04-22T01:51:42;2.70;;;2.50;;
5412;SDS011;2729;50.056;8.678;2023-04-22T01:54:08;5.30;;;2.20;;
5412;SDS011;2729;50.056;8.678;2023-04-22T01:56:35;2.13;;;2.03;;
5412;SDS011;2729;50.056;8.678;2023-04-22T01:59:03;2.33;;;2.10;;
5412;SDS011;2729;50.056;8.678;2023-04-22T02:01:33;2.53;;;2.33;;
5412;SDS011;2729;50.056;8.678;2023-04-22T02:03:59;2.40;;;2.20;;
5412;SDS011;2729;50.056;8.678;2023-04-22T02:06:25;3.37;;;2.43;;
5412;SDS011;2729;50.056;8.678;2023-04-22T02:08:52;2.80;;;2.60;;
5412;SDS011;2729;50.056;8.678;2023-04-22T02:11:18;4.80;;;2.70;;
5412;SDS011;2729;50.056;8.678;2023-04-22T02:13:44;2.50;;;2.10;;
5412;SDS011;2729;50.056;8.678;2023-04-22T02:16:10;2.30;;;2.20;;
5412;SDS011;2729;50.056;8.678;2023-04-22T02:18:36;2.80;;;2.60;;
5412;SDS011;2729;50.056;8.678;2023-04-22T02:21:02;2.60;;;2.10;;
5412;SDS011;2729;50.056;8.678;2023-04-22T02:23:28;3.00;;;2.30;;
5412;SDS011;2729;50.056;8.678;2023-04-22T02:25:54;5.07;;;2.50;;
5412;SDS011;2729;50.056;8.678;2023-04-22T02:28:20;2.40;;;2.10;;
5412;SDS011;2729;50.056;8.678;2023-04-22T02:30:47;2.53;;;2.33;;
5412;SDS011;2729;50.056;8.678;2023-04-22T02:33:13;2.73;;;2.27;;
5412;SDS011;2729;50.056;8.678;2023-04-22T02:35:39;2.33;;;2.23;;
5412;SDS011;2729;50.056;8.678;2023-04-22T02:38:05;2.80;;;2.53;;
5412;SDS011;2729;50.056;8.678;2023-04-22T02:40:31;3.43;;;2.53;;
5412;SDS011;2729;50.056;8.678;2023-04-22T02:42:57;2.50;;;2.30;;
5412;SDS011;2729;50.056;8.678;2023-04-22T02:45:23;3.43;;;1.87;;
5412;SDS011;2729;50.056;8.678;2023-04-22T02:48:01;2.53;;;2.33;;
5412;SDS011;2729;50.056;8.678;2023-04-22T02:50:27;2.07;;;1.90;;
5412;SDS011;2729;50.056;8.678;2023-04-22T02:52:53;3.63;;;2.50;;
5412;SDS011;2729;50.056;8.678;2023-04-22T02:55:19;2.70;;;2.50;;
5412;SDS011;2729;50.056;8.678;2023-04-22T02:57:44;3.40;;;2.50;;
5412;SDS011;2729;50.056;8.678;2023-04-22T03:00:10;5.17;;;2.60;;
5412;SDS011;2729;50.056;8.678;2023-04-22T03:02:37;2.93;;;2.33;;
5412;SDS011;2729;50.056;8.678;2023-04-22T03:05:13;5.73;;;2.43;;
5412;SDS011;2729;50.056;8.678;2023-04-22T03:07:39;2.87;;;2.63;;
5412;SDS011;2729;50.056;8.678;2023-04-22T03:10:05;3.03;;;2.37;;
5412;SDS011;2729;50.056;8.678;2023-04-22T03:12:33;2.97;;;2.63;;
5412;SDS011;2729;50.056;8.678;2023-04-22T03:14:58;3.33;;;2.80;;
5412;SDS011;2729;50.056;8.678;2023-04-22T03:17:28;4.73;;;2.43;;
5412;SDS011;2729;50.056;8.678;2023-04-22T03:19:55;2.30;;;2.10;;
5412;SDS011;2729;50.056;8.678;2023-04-22T03:22:21;2.50;;;2.30;;
5412;SDS011;2729;50.056;8.678;2023-04-22T03:24:47;3.50;;;2.40;;
5412;SDS011;2729;50.056;8.678;2023-04-22T03:27:13;2.20;;;2.00;;
5412;SDS011;2729;50.056;8.678;2023-04-22T03:29:39;2.60;;;2.33;;
5412;SDS011;2729;50.056;8.678;2023-04-22T03:32:05;2.60;;;2.40;;
5412;SDS011;2729;50.056;8.678;2023-04-22T03:34:32;2.20;;;2.10;;
5412;SDS011;2729;50.056;8.678;2023-04-22T03:36:58;2.10;;;2.00;;
5412;SDS011;2729;50.056;8.678;2023-04-22T03:39:25;2.20;;;2.03;;
5412;SDS011;2729;50.056;8.678;2023-04-22T03:41:51;2.90;;;2.60;;
5412;SDS011;2729;50.056;8.678;2023-04-22T03:44:17;2.50;;;2.30;;
5412;SDS011;2729;50.056;8.678;2023-04-22T03:46:44;3.17;;;2.50;;
5412;SDS011;2729;50.056;8.678;2023-04-22T03:49:23;3.07;;;2.17;;
5412;SDS011;2729;50.056;8.678;2023-04-22T03:51:49;2.63;;;2.33;;
5412;SDS011;2729;50.056;8.678;2023-04-22T03:54:18;3.17;;;2.97;;
5412;SDS011;2729;50.056;8.678;2023-04-22T03:56:48;2.57;;;2.30;;
5412;SDS011;2729;50.056;8.678;2023-04-22T03:59:14;3.50;;;2.93;;
5412;SDS011;2729;50.056;8.678;2023-04-22T04:01:40;2.67;;;2.47;;
5412;SDS011;2729;50.056;8.678;2023-04-22T04:04:08;3.90;;;2.50;;
5412;SDS011;2729;50.056;8.678;2023-04-22T04:06:40;4.20;;;2.80;;
5412;SDS011;2729;50.056;8.678;2023-04-22T04:09:06;3.47;;;2.37;;
5412;SDS011;2729;50.056;8.678;2023-04-22T04:11:33;2.70;;;2.50;;
5412;SDS011;2729;50.056;8.678;2023-04-22T04:13:59;3.57;;;2.57;;
5412;SDS011;2729;50.056;8.678;2023-04-22T04:16:30;3.70;;;2.63;;
5412;SDS011;2729;50.056;8.678;2023-04-22T04:19:04;2.60;;;2.40;;
5412;SDS011;2729;50.056;8.678;2023-04-22T04:21:33;3.87;;;2.40;;
5412;SDS011;2729;50.056;8.678;2023-04-22T04:23:59;3.80;;;2.40;;
5412;SDS011;2729;50.056;8.678;2023-04-22T04:26:29;3.50;;;2.97;;
5412;SDS011;2729;50.056;8.678;2023-04-22T04:29:03;4.43;;;2.60;;
5412;SDS011;2729;50.056;8.678;2023-04-22T04:31:30;2.20;;;2.10;;
5412;SDS011;2729;50.056;8.678;2023-04-22T04:33:58;3.17;;;2.73;;
5412;SDS011;2729;50.056;8.678;2023-04-22T04:36:24;2.70;;;2.50;;
5412;SDS011;2729;50.056;8.678;2023-04-22T04:38:54;3.07;;;2.50;;
5412;SDS011;2729;50.056;8.678;2023-04-22T04:41:20;2.80;;;2.20;;
5412;SDS011;2729;50.056;8.678;2023-04-22T04:43:47;4.50;;;3.00;;
5412;SDS011;2729;50.056;8.678;2023-04-22T04:46:22;3.53;;;2.50;;
5412;SDS011;2729;50.056;8.678;2023-04-22T04:48:48;2.57;;;2.40;;
5412;SDS011;2729;50.056;8.678;2023-04-22T04:51:16;2.90;;;2.27;;
5412;SDS011;2729;50.056;8.678;2023-04-22T04:53:49;6.20;;;2.00;;
5412;SDS011;2729;50.056;8.678;2023-04-22T04:56:15;2.93;;;2.70;;
5412;SDS011;2729;50.056;8.678;2023-04-22T04:58:41;2.20;;;2.10;;
5412;SDS011;2729;50.056;8.678;2023-04-22T05:01:23;2.20;;;2.10;;
5412;SDS011;2729;50.056;8.678;2023-04-22T05:03:50;2.47;;;2.27;;
5412;SDS011;2729;50.056;8.678;2023-04-22T05:06:18;2.03;;;1.93;;
5412;SDS011;2729;50.056;8.678;2023-04-22T05:08:48;16.27;;;2.20;;
5412;SDS011;2729;50.056;8.678;2023-04-22T05:11:14;5.93;;;2.90;;
5412;SDS011;2729;50.056;8.678;2023-04-22T05:13:43;3.10;;;2.50;;
5412;SDS011;2729;50.056;8.678;2023-04-22T05:16:15;5.10;;;2.63;;
5412;SDS011;2729;50.056;8.678;2023-04-22T05:18:41;4.90;;;2.70;;
5412;SDS011;2729;50.056;8.678;2023-04-22T05:21:09;2.50;;;2.30;;
5412;SDS011;2729;50.056;8.678;2023-04-22T05:23:35;4.43;;;2.40;;
5412;SDS011;2729;50.056;8.678;2023-04-22T05:26:04;2.43;;;2.23;;
5412;SDS011;2729;50.056;8.678;2023-04-22T05:28:30;3.10;;;2.80;;
5412;SDS011;2729;50.056;8.678;2023-04-22T05:30:56;2.53;;;2.33;;
5412;SDS011;2729;50.056;8.678;2023-04-22T05:33:25;6.70;;;2.27;;
5412;SDS011;2729;50.056;8.678;2023-04-22T05:35:51;3.00;;;2.10;;
5412;SDS011;2729;50.056;8.678;2023-04-22T05:38:18;3.30;;;2.40;;
5412;SDS011;2729;50.056;8.678;2023-04-22T05:40:44;4.57;;;2.30;;
5412;SDS011;2729;50.056;8.678;2023-04-22T05:43:13;4.70;;;2.70;;
5412;SDS011;2729;50.056;8.678;2023-04-22T05:45:41;3.03;;;2.50;;
5412;SDS011;2729;50.056;8.678;2023-04-22T05:48:09;2.37;;;2.17;;
5412;SDS011;2729;50.056;8.678;2023-04-22T05:50:41;2.27;;;2.17;;
5412;SDS011;2729;50.056;8.678;2023-04-22T05:53:07;3.27;;;1.90;;
5412;SDS011;2729;50.056;8.678;2023-04-22T05:55:33;2.30;;;2.20;;
5412;SDS011;2729;50.056;8.678;2023-04-22T05:58:00;2.30;;;2.20;;
5412;SDS011;2729;50.056;8.678;2023-04-22T06:00:43;2.57;;;2.37;;
5412;SDS011;2729;50.056;8.678;2023-04-22T06:03:21;2.13;;;2.03;;
5412;SDS011;2729;50.056;8.678;2023-04-22T06:05:47;2.53;;;2.20;;
5412;SDS011;2729;50.056;8.678;2023-04-22T06:08:13;2.60;;;2.23;;
5412;SDS011;2729;50.056;8.678;2023-04-22T06:10:39;2.70;;;2.10;;
5412;SDS011;2729;50.056;8.678;2023-04-22T06:13:05;5.80;;;2.70;;
5412;SDS011;2729;50.056;8.678;2023-04-22T06:15:32;2.43;;;2.20;;
5412;SDS011;2729;50.056;8.678;2023-04-22T06:17:59;2.57;;;2.37;;
5412;SDS011;2729;50.056;8.678;2023-04-22T06:20:25;2.23;;;2.13;;
5412;SDS011;2729;50.056;8.678;2023-04-22T06:22:51;8.10;;;2.43;;
5412;SDS011;2729;50.056;8.678;2023-04-22T06:25:17;2.27;;;2.07;;
5412;SDS011;2729;50.056;8.678;2023-04-22T06:27:43;2.10;;;2.00;;
5412;SDS011;2729;50.056;8.678;2023-04-22T06:30:10;4.10;;;2.30;;
5412;SDS011;2729;50.056;8.678;2023-04-22T06:32:36;2.60;;;2.20;;
5412;SDS011;2729;50.056;8.678;2023-04-22T06:35:02;2.77;;;2.50;;
5412;SDS011;2729;50.056;8.678;2023-04-22T06:37:29;1.90;;;1.80;;
5412;SDS011;2729;50.056;8.678;2023-04-22T06:39:55;2.20;;;2.00;;
5412;SDS011;2729;50.056;8.678;2023-04-22T06:42:43;2.60;;;2.40;;
5412;SDS011;2729;50.056;8.678;2023-04-22T06:45:18;2.60;;;2.33;;
5412;SDS011;2729;50.056;8.678;2023-04-22T06:48:10;2.37;;;2.20;;
5412;SDS011;2729;50.056;8.678;2023-04-22T06:50:55;5.90;;;2.70;;
5412;SDS011;2729;50.056;8.678;2023-04-22T06:53:22;3.23;;;2.50;;
5412;SDS011;2729;50.056;8.678;2023-04-22T06:55:48;3.10;;;2.30;;
5412;SDS011;2729;50.056;8.678;2023-04-22T06:58:14;2.73;;;2.53;;
5412;SDS011;2729;50.056;8.678;2023-04-22T07:00:41;3.33;;;2.60;;
5412;SDS011;2729;50.056;8.678;2023-04-22T07:03:08;3.70;;;2.70;;
5412;SDS011;2729;50.056;8.678;2023-04-22T07:05:34;5.13;;;2.23;;
5412;SDS011;2729;50.056;8.678;2023-04-22T07:08:01;3.27;;;2.70;;
5412;SDS011;2729;50.056;8.678;2023-04-22T07:10:27;5.03;;;3.07;;
5412;SDS011;2729;50.056;8.678;2023-04-22T07:13:11;11.20;;;2.63;;
5412;SDS011;2729;50.056;8.678;2023-04-22T07:15:37;3.10;;;2.50;;
5412;SDS011;2729;50.056;8.678;2023-04-22T07:18:03;4.40;;;2.60;;
5412;SDS011;2729;50.056;8.678;2023-04-22T07:20:29;9.73;;;2.50;;
5412;SDS011;2729;50.056;8.678;2023-04-22T07:22:55;2.43;;;2.23;;
5412;SDS011;2729;50.056;8.678;2023-04-22T07:25:21;2.63;;;2.43;;
5412;SDS011;2729;50.056;8.678;2023-04-22T07:27:48;2.43;;;2.30;;
5412;SDS011;2729;50.056;8.678;2023-04-22T07:30:14;2.73;;;2.53;;
5412;SDS011;2729;50.056;8.678;2023-04-22T07:32:40;2.83;;;2.30;;
5412;SDS011;2729;50.056;8.678;2023-04-22T07:35:06;2.70;;;2.30;;
5412;SDS011;2729;50.056;8.678;2023-04-22T07:37:33;2.60;;;2.40;;
5412;SDS011;2729;50.056;8.678;2023-04-22T07:39:59;1.97;;;1.83;;
5412;SDS011;2729;50.056;8.678;2023-04-22T07:42:25;3.13;;;2.63;;
5412;SDS011;2729;50.056;8.678;2023-04-22T07:44:50;2.63;;;2.43;;
5412;SDS011;2729;50.056;8.678;2023-04-22T07:47:16;2.30;;;2.20;;
5412;SDS011;2729;50.056;8.678;2023-04-22T07:49:42;2.83;;;1.97;;
5412;SDS011;2729;50.056;8.678;2023-04-22T07:52:10;2.23;;;2.10;;
5412;SDS011;2729;50.056;8.678;2023-04-22T07:54:36;2.20;;;1.93;;
5412;SDS011;2729;50.056;8.678;2023-04-22T07:57:01;3.27;;;2.30;;
5412;SDS011;2729;50.056;8.678;2023-04-22T07:59:27;2.17;;;2.07;;
5412;SDS011;2729;50.056;8.678;2023-04-22T08:01:53;3.07;;;2.87;;
5412;SDS011;2729;50.056;8.678;2023-04-22T08:04:22;1.90;;;1.80;;
5412;SDS011;2729;50.056;8.678;2023-04-22T08:06:48;1.93;;;1.83;;
5412;SDS011;2729;50.056;8.678;2023-04-22T08:09:14;3.70;;;2.50;;
5412;SDS011;2729;50.056;8.678;2023-04-22T08:11:40;2.70;;;2.50;;
5412;SDS011;2729;50.056;8.678;2023-04-22T08:14:06;2.50;;;2.33;;
5412;SDS011;2729;50.056;8.678;2023-04-22T08:16:32;1.90;;;1.80;;
5412;SDS011;2729;50.056;8.678;2023-04-22T08:18:58;2.60;;;2.40;;
5412;SDS011;2729;50.056;8.678;2023-04-22T08:21:24;2.03;;;1.93;;
5412;SDS011;2729;50.056;8.678;2023-04-22T08:23:51;2.50;;;1.80;;
5412;SDS011;2729;50.056;8.678;2023-04-22T08:26:19;3.37;;;2.13;;
5412;SDS011;2729;50.056;8.678;2023-04-22T08:28:45;2.37;;;2.10;;
5412;SDS011;2729;50.056;8.678;2023-04-22T08:31:12;2.40;;;1.90;;
5412;SDS011;2729;50.056;8.678;2023-04-22T08:33:38;1.90;;;1.80;;
5412;SDS011;2729;50.056;8.678;2023-04-22T08:36:05;1.87;;;1.77;;
5412;SDS011;2729;50.056;8.678;2023-04-22T08:38:31;3.40;;;2.10;;
5412;SDS011;2729;50.056;8.678;2023-04-22T08:40:57;2.20;;;2.10;;
5412;SDS011;2729;50.056;8.678;2023-04-22T08:43:24;1.70;;;1.60;;
5412;SDS011;2729;50.056;8.678;2023-04-22T08:45:51;2.00;;;1.90;;
5412;SDS011;2729;50.056;8.678;2023-04-22T08:48:17;1.97;;;1.87;;
5412;SDS011;2729;50.056;8.678;2023-04-22T08:50:45;2.03;;;1.93;;
5412;SDS011;2729;50.056;8.678;2023-04-22T08:53:12;1.80;;;1.70;;
5412;SDS011;2729;50.056;8.678;2023-04-22T08:55:39;2.23;;;2.00;;
5412;SDS011;2729;50.056;8.678;2023-04-22T08:58:09;2.10;;;2.00;;
5412;SDS011;2729;50.056;8.678;2023-04-22T09:00:35;8.83;;;2.20;;
5412;SDS011;2729;50.056;8.678;2023-04-22T09:03:01;2.00;;;1.90;;
5412;SDS011;2729;50.056;8.678;2023-04-22T09:05:31;2.17;;;1.90;;
5412;SDS011;2729;50.056;8.678;2023-04-22T09:07:58;2.07;;;1.90;;
5412;SDS011;2729;50.056;8.678;2023-04-22T09:10:24;9.43;;;2.13;;
5412;SDS011;2729;50.056;8.678;2023-04-22T09:12:50;1.90;;;1.80;;
5412;SDS011;2729;50.056;8.678;2023-04-22T09:15:16;2.03;;;1.77;;
5412;SDS011;2729;50.056;8.678;2023-04-22T09:17:42;1.90;;;1.80;;
5412;SDS011;2729;50.056;8.678;2023-04-22T09:20:08;2.10;;;2.00;;
5412;SDS011;2729;50.056;8.678;2023-04-22T09:22:37;2.33;;;2.13;;
5412;SDS011;2729;50.056;8.678;2023-04-22T09:27:53;1.60;;;1.50;;
5412;SDS011;2729;50.056;8.678;2023-04-22T09:32:55;1.57;;;1.50;;
5412;SDS011;2729;50.056;8.678;2023-04-22T09:35:24;1.67;;;1.57;;
5412;SDS011;2729;50.056;8.678;2023-04-22T09:37:52;1.80;;;1.70;;
5412;SDS011;2729;50.056;8.678;2023-04-22T09:40:18;1.60;;;1.50;;
5412;SDS011;2729;50.056;8.678;2023-04-22T09:42:51;2.00;;;1.90;;
5412;SDS011;2729;50.056;8.678;2023-04-22T09:45:25;2.07;;;1.93;;
5412;SDS011;2729;50.056;8.678;2023-04-22T09:47:59;1.73;;;1.57;;
5412;SDS011;2729;50.056;8.678;2023-04-22T09:50:27;1.80;;;1.70;;
5412;SDS011;2729;50.056;8.678;2023-04-22T09:52:54;2.23;;;1.93;;
5412;SDS011;2729;50.056;8.678;2023-04-22T09:55:32;3.03;;;2.30;;
5412;SDS011;2729;50.056;8.678;2023-04-22T09:58:04;1.90;;;1.70;;
5412;SDS011;2729;50.056;8.678;2023-04-22T10:00:33;2.10;;;1.30;;
5412;SDS011;2729;50.056;8.678;2023-04-22T10:03:03;2.63;;;2.43;;
5412;SDS011;2729;50.056;8.678;2023-04-22T10:05:30;2.00;;;1.90;;
5412;SDS011;2729;50.056;8.678;2023-04-22T10:07:56;2.90;;;2.30;;
5412;SDS011;2729;50.056;8.678;2023-04-22T10:10:22;1.53;;;1.53;;
5412;SDS011;2729;50.056;8.678;2023-04-22T10:12:48;1.73;;;1.63;;
5412;SDS011;2729;50.056;8.678;2023-04-22T10:15:14;1.30;;;1.20;;
5412;SDS011;2729;50.056;8.678;2023-04-22T10:17:40;1.47;;;1.47;;
5412;SDS011;2729;50.056;8.678;2023-04-22T10:20:11;1.37;;;1.37;;
5412;SDS011;2729;50.056;8.678;2023-04-22T10:22:41;1.40;;;1.33;;
5412;SDS011;2729;50.056;8.678;2023-04-22T10:25:11;1.90;;;1.80;;
5412;SDS011;2729;50.056;8.678;2023-04-22T10:28:00;1.07;;;1.07;;
5412;SDS011;2729;50.056;8.678;2023-04-22T10:30:31;1.67;;;1.57;;
5412;SDS011;2729;50.056;8.678;2023-04-22T10:36:04;2.73;;;1.77;;
5412;SDS011;2729;50.056;8.678;2023-04-22T10:41:14;2.00;;;1.90;;
5412;SDS011;2729;50.056;8.678;2023-04-22T10:43:56;2.03;;;1.93;;
5412;SDS011;2729;50.056;8.678;2023-04-22T10:48:58;2.00;;;1.50;;
5412;SDS011;2729;50.056;8.678;2023-04-22T10:51:37;2.20;;;1.83;;
5412;SDS011;2729;50.056;8.678;2023-04-22T10:54:03;2.30;;;1.63;;
5412;SDS011;2729;50.056;8.678;2023-04-22T10:56:29;3.90;;;1.93;;
5412;SDS011;2729;50.056;8.678;2023-04-22T10:58:55;2.23;;;2.03;;
5412;SDS011;2729;50.056;8.678;2023-04-22T11:01:21;2.20;;;2.10;;
5412;SDS011;2729;50.056;8.678;2023-04-22T11:03:47;1.30;;;1.30;;
5412;SDS011;2729;50.056;8.678;2023-04-22T11:08:47;1.83;;;1.73;;
5412;SDS011;2729;50.056;8.678;2023-04-22T11:11:17;1.07;;;1.07;;
5412;SDS011;2729;50.056;8.678;2023-04-22T11:13:43;2.50;;;1.33;;
5412;SDS011;2729;50.056;8.678;2023-04-22T11:16:10;2.37;;;2.20;;
5412;SDS011;2729;50.056;8.678;2023-04-22T11:18:36;1.33;;;1.23;;
5412;SDS011;2729;50.056;8.678;2023-04-22T11:21:02;1.40;;;1.40;;
5412;SDS011;2729;50.056;8.678;2023-04-22T11:23:30;4.20;;;1.53;;
5412;SDS011;2729;50.056;8.678;2023-04-22T11:25:57;1.20;;;1.20;;
5412;SDS011;2729;50.056;8.678;2023-04-22T11:28:25;1.40;;;1.30;;
5412;SDS011;2729;50.056;8.678;2023-04-22T11:30:51;1.40;;;1.40;;
5412;SDS011;2729;50.056;8.678;2023-04-22T11:33:19;1.57;;;1.47;;
5412;SDS011;2729;50.056;8.678;2023-04-22T11:35:47;2.30;;;1.20;;
5412;SDS011;2729;50.056;8.678;2023-04-22T11:38:14;1.87;;;1.20;;
5412;SDS011;2729;50.056;8.678;2023-04-22T11:40:40;1.90;;;1.50;;
5412;SDS011;2729;50.056;8.678;2023-04-22T11:43:08;1.20;;;1.10;;
5412;SDS011;2729;50.056;8.678;2023-04-22T11:45:35;1.10;;;1.10;;
5412;SDS011;2729;50.056;8.678;2023-04-22T11:48:02;1.43;;;1.33;;
5412;SDS011;2729;50.056;8.678;2023-04-22T11:50:40;1.50;;;1.40;;
5412;SDS011;2729;50.056;8.678;2023-04-22T11:55:46;1.07;;;1.03;;
5412;SDS011;2729;50.056;8.678;2023-04-22T12:00:43;7.50;;;1.10;;
5412;SDS011;2729;50.056;8.678;2023-04-22T12:03:14;1.47;;;1.47;;
5412;SDS011;2729;50.056;8.678;2023-04-22T12:05:58;1.47;;;1.47;;
5412;SDS011;2729;50.056;8.678;2023-04-22T12:08:30;1.00;;;1.00;;
5412;SDS011;2729;50.056;8.678;2023-04-22T12:10:57;1.30;;;1.30;;
5412;SDS011;2729;50.056;8.678;2023-04-22T12:13:32;1.00;;;1.00;;
5412;SDS011;2729;50.056;8.678;2023-04-22T12:16:13;1.07;;;1.07;;
5412;SDS011;2729;50.056;8.678;2023-04-22T12:21:15;1.43;;;1.33;;
5412;SDS011;2729;50.056;8.678;2023-04-22T12:23:46;1.10;;;1.10;;
5412;SDS011;2729;50.056;8.678;2023-04-22T12:26:18;3.93;;;1.40;;
5412;SDS011;2729;50.056;8.678;2023-04-22T12:28:45;1.20;;;1.20;;
5412;SDS011;2729;50.056;8.678;2023-04-22T12:31:14;0.93;;;0.93;;
5412;SDS011;2729;50.056;8.678;2023-04-22T12:33:42;1.23;;;1.20;;
5412;SDS011;2729;50.056;8.678;2023-04-22T12:36:09;1.93;;;1.83;;
5412;SDS011;2729;50.056;8.678;2023-04-22T12:38:35;1.27;;;1.17;;
5412;SDS011;2729;50.056;8.678;2023-04-22T12:41:05;1.93;;;1.83;;
5412;SDS011;2729;50.056;8.678;2023-04-22T12:43:32;1.20;;;1.20;;
5412;SDS011;2729;50.056;8.678;2023-04-22T12:46:01;1.30;;;1.20;;
5412;SDS011;2729;50.056;8.678;2023-04-22T12:48:28;1.13;;;1.13;;
5412;SDS011;2729;50.056;8.678;2023-04-22T12:50:54;1.43;;;1.33;;
5412;SDS011;2729;50.056;8.678;2023-04-22T12:53:21;1.67;;;1.57;;
5412;SDS011;2729;50.056;8.678;2023-04-22T12:55:47;5.13;;;1.10;;
5412;SDS011;2729;50.056;8.678;2023-04-22T12:58:13;1.57;;;1.47;;
5412;SDS011;2729;50.056;8.678;2023-04-22T13:00:39;1.93;;;1.73;;
5412;SDS011;2729;50.056;8.678;2023-04-22T13:03:06;1.83;;;1.73;;
5412;SDS011;2729;50.056;8.678;2023-04-22T13:05:32;1.40;;;1.40;;
5412;SDS011;2729;50.056;8.678;2023-04-22T13:07:58;1.73;;;1.70;;
5412;SDS011;2729;50.056;8.678;2023-04-22T13:10:24;1.40;;;1.30;;
5412;SDS011;2729;50.056;8.678;2023-04-22T13:12:52;1.37;;;1.27;;
5412;SDS011;2729;50.056;8.678;2023-04-22T13:15:19;1.30;;;1.20;;
5412;SDS011;2729;50.056;8.678;2023-04-22T13:17:46;1.47;;;1.40;;
5412;SDS011;2729;50.056;8.678;2023-04-22T13:20:12;1.80;;;1.70;;
5412;SDS011;2729;50.056;8.678;2023-04-22T13:22:39;1.57;;;1.50;;
5412;SDS011;2729;50.056;8.678;2023-04-22T13:25:06;1.47;;;1.37;;
5412;SDS011;2729;50.056;8.678;2023-04-22T13:27:33;1.20;;;1.20;;
5412;SDS011;2729;50.056;8.678;2023-04-22T13:29:59;0.93;;;0.93;;
5412;SDS011;2729;50.056;8.678;2023-04-22T13:32:25;1.50;;;1.40;;
5412;SDS011;2729;50.056;8.678;2023-04-22T13:34:51;1.97;;;1.50;;
5412;SDS011;2729;50.056;8.678;2023-04-22T13:37:17;1.73;;;1.67;;
5412;SDS011;2729;50.056;8.678;2023-04-22T13:39:45;3.70;;;1.50;;
5412;SDS011;2729;50.056;8.678;2023-04-22T13:42:11;1.93;;;1.70;;
5412;SDS011;2729;50.056;8.678;2023-04-22T13:44:37;1.33;;;1.33;;
5412;SDS011;2729;50.056;8.678;2023-04-22T13:47:02;1.57;;;1.47;;
5412;SDS011;2729;50.056;8.678;2023-04-22T13:49:28;1.40;;;1.30;;
5412;SDS011;2729;50.056;8.678;2023-04-22T13:51:54;1.80;;;1.70;;
5412;SDS011;2729;50.056;8.678;2023-04-22T13:54:21;1.80;;;1.70;;
5412;SDS011;2729;50.056;8.678;2023-04-22T13:56:47;1.70;;;1.60;;
5412;SDS011;2729;50.056;8.678;2023-04-22T13:59:13;2.00;;;1.37;;
5412;SDS011;2729;50.056;8.678;2023-04-22T14:01:40;2.80;;;1.53;;
5412;SDS011;2729;50.056;8.678;2023-04-22T14:04:06;1.30;;;1.20;;
5412;SDS011;2729;50.056;8.678;2023-04-22T14:06:32;1.80;;;1.70;;
5412;SDS011;2729;50.056;8.678;2023-04-22T14:08:58;1.50;;;1.40;;
5412;SDS011;2729;50.056;8.678;2023-04-22T14:11:24;1.67;;;1.57;;
5412;SDS011;2729;50.056;8.678;2023-04-22T14:13:50;1.43;;;1.33;;
5412;SDS011;2729;50.056;8.678;2023-04-22T14:16:16;1.87;;;1.57;;
5412;SDS011;2729;50.056;8.678;2023-04-22T14:18:44;1.03;;;1.03;;
5412;SDS011;2729;50.056;8.678;2023-04-22T14:21:10;1.43;;;1.33;;
5412;SDS011;2729;50.056;8.678;2023-04-22T14:23:37;2.03;;;1.50;;
5412;SDS011;2729;50.056;8.678;2023-04-22T14:26:08;1.20;;;1.20;;
5412;SDS011;2729;50.056;8.678;2023-04-22T14:28:36;1.67;;;1.60;;
5412;SDS011;2729;50.056;8.678;2023-04-22T14:31:04;2.10;;;1.60;;
5412;SDS011;2729;50.056;8.678;2023-04-22T14:33:30;3.13;;;1.30;;
5412;SDS011;2729;50.056;8.678;2023-04-22T14:35:56;2.70;;;1.60;;
5412;SDS011;2729;50.056;8.678;2023-04-22T14:38:22;1.63;;;1.40;;
5412;SDS011;2729;50.056;8.678;2023-04-22T14:40:48;1.83;;;1.30;;
5412;SDS011;2729;50.056;8.678;2023-04-22T14:43:15;1.50;;;1.40;;
5412;SDS011;2729;50.056;8.678;2023-04-22T14:45:42;2.13;;;1.73;;
5412;SDS011;2729;50.056;8.678;2023-04-22T14:48:08;1.67;;;1.50;;
5412;SDS011;2729;50.056;8.678;2023-04-22T14:50:34;1.53;;;1.43;;
5412;SDS011;2729;50.056;8.678;2023-04-22T14:53:00;1.90;;;1.80;;
5412;SDS011;2729;50.056;8.678;2023-04-22T14:55:27;5.40;;;1.13;;
5412;SDS011;2729;50.056;8.678;2023-04-22T14:57:54;1.50;;;1.40;;
5412;SDS011;2729;50.056;8.678;2023-04-22T15:00:24;4.57;;;1.43;;
5412;SDS011;2729;50.056;8.678;2023-04-22T15:02:51;1.30;;;1.20;;
5412;SDS011;2729;50.056;8.678;2023-04-22T15:05:18;2.73;;;1.73;;
5412;SDS011;2729;50.056;8.678;2023-04-22T15:07:45;4.00;;;1.60;;
5412;SDS011;2729;50.056;8.678;2023-04-22T15:10:11;5.43;;;1.87;;
5412;SDS011;2729;50.056;8.678;2023-04-22T15:12:36;5.03;;;1.70;;
5412;SDS011;2729;50.056;8.678;2023-04-22T15:15:02;1.60;;;1.20;;
5412;SDS011;2729;50.056;8.678;2023-04-22T15:17:29;2.50;;;1.20;;
5412;SDS011;2729;50.056;8.678;2023-04-22T15:19:55;1.70;;;1.60;;
5412;SDS011;2729;50.056;8.678;2023-04-22T15:22:23;1.63;;;1.50;;
5412;SDS011;2729;50.056;8.678;2023-04-22T15:24:49;2.00;;;1.40;;
5412;SDS011;2729;50.056;8.678;2023-04-22T15:27:16;1.73;;;1.63;;
5412;SDS011;2729;50.056;8.678;2023-04-22T15:29:42;3.33;;;1.40;;
5412;SDS011;2729;50.056;8.678;2023-04-22T15:32:11;1.33;;;1.30;;
5412;SDS011;2729;50.056;8.678;2023-04-22T15:34:37;2.90;;;1.50;;
5412;SDS011;2729;50.056;8.678;2023-04-22T15:37:03;2.23;;;1.23;;
5412;SDS011;2729;50.056;8.678;2023-04-22T15:39:29;1.37;;;1.27;;
5412;SDS011;2729;50.056;8.678;2023-04-22T15:41:55;1.30;;;1.30;;